sensor_id;sensor_type;location;lat;lon;timestamp;temperature;humidity
61255;DHT22;47128;47.530;8.584;2022-12-18T00:01:43;-1.30;99.90
61255;DHT22;47128;47.530;8.584;2022-12-18T00:04:19;-1.20;99.90
61255;DHT22;47128;47.530;8.584;2022-12-18T00:06:45;-1.20;99.90
61255;DHT22;47128;47.530;8.584;2022-12-18T00:09:11;-1.20;99.90
61255;DHT22;47128;47.530;8.584;2022-12-18T00:11:36;-1.20;99.90
61255;DHT22;47128;47.530;8.584;2022-12-18T00:14:02;-1.30;99.90
61255;DHT22;47128;47.530;8.584;2022-12-18T00:16:29;-1.30;99.90
61255;DHT22;47128;47.530;8.584;2022-12-18T00:19:00;-1.30;99.90
61255;DHT22;47128;47.530;8.584;2022-12-18T00:21:27;-1.30;99.90
61255;DHT22;47128;47.530;8.584;2022-12-18T00:23:53;-1.30;99.90
61255;DHT22;47128;47.530;8.584;2022-12-18T00:26:28;-1.30;99.90
61255;DHT22;47128;47.530;8.584;2022-12-18T00:28:54;-1.30;99.90
61255;DHT22;47128;47.530;8.584;2022-12-18T00:31:23;-1.30;99.90
61255;DHT22;47128;47.530;8.584;2022-12-18T00:33:49;-1.30;99.90
61255;DHT22;47128;47.530;8.584;2022-12-18T00:36:24;-1.30;99.90
61255;DHT22;47128;47.530;8.584;2022-12-18T00:38:50;-1.20;99.90
61255;DHT22;47128;47.530;8.584;2022-12-18T00:41:17;-1.20;99.90
61255;DHT22;47128;47.530;8.584;2022-12-18T00:44:04;-1.30;99.90
61255;DHT22;47128;47.530;8.584;2022-12-18T00:46:30;-1.30;99.90
61255;DHT22;47128;47.530;8.584;2022-12-18T00:48:55;-1.30;99.90
61255;DHT22;47128;47.530;8.584;2022-12-18T00:51:21;-1.30;99.90
61255;DHT22;47128;47.530;8.584;2022-12-18T00:53:47;-1.30;99.90
61255;DHT22;47128;47.530;8.584;2022-12-18T00:56:12;-1.30;99.90
61255;DHT22;47128;47.530;8.584;2022-12-18T00:58:38;-1.30;99.90
61255;DHT22;47128;47.530;8.584;2022-12-18T01:01:04;-1.20;99.90
61255;DHT22;47128;47.530;8.584;2022-12-18T01:03:30;-1.20;99.90
61255;DHT22;47128;47.530;8.584;2022-12-18T01:05:56;-1.20;99.90
61255;DHT22;47128;47.530;8.584;2022-12-18T01:08:21;-1.20;99.90
61255;DHT22;47128;47.530;8.584;2022-12-18T01:10:47;-1.20;99.90
61255;DHT22;47128;47.530;8.584;2022-12-18T01:13:13;-1.20;99.90
61255;DHT22;47128;47.530;8.584;2022-12-18T01:15:38;-1.20;99.90
61255;DHT22;47128;47.530;8.584;2022-12-18T01:18:05;-1.20;99.90
61255;DHT22;47128;47.530;8.584;2022-12-18T01:20:31;-1.20;99.90
61255;DHT22;47128;47.530;8.584;2022-12-18T01:22:57;-1.20;99.90
61255;DHT22;47128;47.530;8.584;2022-12-18T01:25:22;-1.20;99.90
61255;DHT22;47128;47.530;8.584;2022-12-18T01:27:48;-1.20;99.90
61255;DHT22;47128;47.530;8.584;2022-12-18T01:30:13;-1.20;99.90
61255;DHT22;47128;47.530;8.584;2022-12-18T01:32:39;-1.20;99.90
61255;DHT22;47128;47.530;8.584;2022-12-18T01:35:05;-1.20;99.90
61255;DHT22;47128;47.530;8.584;2022-12-18T01:37:31;-1.10;99.90
61255;DHT22;47128;47.530;8.584;2022-12-18T01:39:56;-1.20;99.90
61255;DHT22;47128;47.530;8.584;2022-12-18T01:42:22;-1.20;99.90
61255;DHT22;47128;47.530;8.584;2022-12-18T01:45:00;-1.20;99.90
61255;DHT22;47128;47.530;8.584;2022-12-18T01:47:40;-1.30;99.90
61255;DHT22;47128;47.530;8.584;2022-12-18T01:50:16;-1.30;99.90
61255;DHT22;47128;47.530;8.584;2022-12-18T01:52:45;-1.30;99.90
61255;DHT22;47128;47.530;8.584;2022-12-18T01:55:16;-1.30;99.90
61255;DHT22;47128;47.530;8.584;2022-12-18T01:57:43;-1.40;99.90
61255;DHT22;47128;47.530;8.584;2022-12-18T02:00:17;-1.40;99.90
61255;DHT22;47128;47.530;8.584;2022-12-18T02:02:44;-1.40;99.90
61255;DHT22;47128;47.530;8.584;2022-12-18T02:05:11;-1.40;99.90
61255;DHT22;47128;47.530;8.584;2022-12-18T02:08:21;-1.40;99.90
61255;DHT22;47128;47.530;8.584;2022-12-18T02:11:14;-1.40;99.90
61255;DHT22;47128;47.530;8.584;2022-12-18T02:14:00;-1.40;99.90
61255;DHT22;47128;47.530;8.584;2022-12-18T02:16:31;-1.40;99.90
61255;DHT22;47128;47.530;8.584;2022-12-18T02:19:01;-1.50;99.90
61255;DHT22;47128;47.530;8.584;2022-12-18T02:21:49;-1.50;99.90
61255;DHT22;47128;47.530;8.584;2022-12-18T02:24:34;-1.50;99.90
61255;DHT22;47128;47.530;8.584;2022-12-18T02:27:06;-1.50;99.90
61255;DHT22;47128;47.530;8.584;2022-12-18T02:29:37;-1.50;99.90
61255;DHT22;47128;47.530;8.584;2022-12-18T02:32:09;-1.50;99.90
61255;DHT22;47128;47.530;8.584;2022-12-18T02:34:38;-1.40;99.90
61255;DHT22;47128;47.530;8.584;2022-12-18T02:37:07;-1.50;99.90
61255;DHT22;47128;47.530;8.584;2022-12-18T02:39:38;-1.50;99.90
61255;DHT22;47128;47.530;8.584;2022-12-18T02:42:05;-1.50;99.90
61255;DHT22;47128;47.530;8.584;2022-12-18T02:44:43;-1.40;99.90
61255;DHT22;47128;47.530;8.584;2022-12-18T02:47:11;-1.50;99.90
61255;DHT22;47128;47.530;8.584;2022-12-18T02:52:49;-1.40;99.90
61255;DHT22;47128;47.530;8.584;2022-12-18T03:01:04;-1.30;99.90
61255;DHT22;47128;47.530;8.584;2022-12-18T03:03:56;-1.40;99.90
61255;DHT22;47128;47.530;8.584;2022-12-18T03:06:39;-1.30;99.90
61255;DHT22;47128;47.530;8.584;2022-12-18T03:09:21;-1.30;99.90
61255;DHT22;47128;47.530;8.584;2022-12-18T03:11:52;-1.30;99.90
61255;DHT22;47128;47.530;8.584;2022-12-18T03:14:40;-1.30;99.90
61255;DHT22;47128;47.530;8.584;2022-12-18T03:17:10;-1.30;99.90
61255;DHT22;47128;47.530;8.584;2022-12-18T03:19:38;-1.30;99.90
61255;DHT22;47128;47.530;8.584;2022-12-18T03:22:07;-1.30;99.90
61255;DHT22;47128;47.530;8.584;2022-12-18T03:24:33;-1.30;99.90
61255;DHT22;47128;47.530;8.584;2022-12-18T03:27:01;-1.30;99.90
61255;DHT22;47128;47.530;8.584;2022-12-18T03:29:37;-1.40;99.90
61255;DHT22;47128;47.530;8.584;2022-12-18T03:32:11;-1.30;99.90
61255;DHT22;47128;47.530;8.584;2022-12-18T03:34:41;-1.30;99.90
61255;DHT22;47128;47.530;8.584;2022-12-18T03:37:07;-1.30;99.90
61255;DHT22;47128;47.530;8.584;2022-12-18T03:39:34;-1.30;99.90
61255;DHT22;47128;47.530;8.584;2022-12-18T03:42:16;-1.30;99.90
61255;DHT22;47128;47.530;8.584;2022-12-18T03:45:13;-1.30;99.90
61255;DHT22;47128;47.530;8.584;2022-12-18T03:48:04;-1.30;99.90
61255;DHT22;47128;47.530;8.584;2022-12-18T03:50:59;-1.30;99.90
61255;DHT22;47128;47.530;8.584;2022-12-18T03:53:44;-1.40;99.90
61255;DHT22;47128;47.530;8.584;2022-12-18T03:56:14;-1.30;99.90
61255;DHT22;47128;47.530;8.584;2022-12-18T03:58:43;-1.30;99.90
61255;DHT22;47128;47.530;8.584;2022-12-18T04:01:12;-1.40;99.90
61255;DHT22;47128;47.530;8.584;2022-12-18T04:03:39;-1.40;99.90
61255;DHT22;47128;47.530;8.584;2022-12-18T04:06:05;-1.40;99.90
61255;DHT22;47128;47.530;8.584;2022-12-18T04:08:32;-1.40;99.90
61255;DHT22;47128;47.530;8.584;2022-12-18T04:11:00;-1.40;99.90
61255;DHT22;47128;47.530;8.584;2022-12-18T04:13:32;-1.40;99.90
61255;DHT22;47128;47.530;8.584;2022-12-18T04:15:59;-1.40;99.90
61255;DHT22;47128;47.530;8.584;2022-12-18T04:18:25;-1.40;99.90
61255;DHT22;47128;47.530;8.584;2022-12-18T04:20:51;-1.40;99.90
61255;DHT22;47128;47.530;8.584;2022-12-18T04:23:16;-1.40;99.90
61255;DHT22;47128;47.530;8.584;2022-12-18T04:25:42;-1.40;99.90
61255;DHT22;47128;47.530;8.584;2022-12-18T04:28:07;-1.40;99.90
61255;DHT22;47128;47.530;8.584;2022-12-18T04:30:33;-1.40;99.90
61255;DHT22;47128;47.530;8.584;2022-12-18T04:32:59;-1.40;99.90
61255;DHT22;47128;47.530;8.584;2022-12-18T04:35:25;-1.40;99.90
61255;DHT22;47128;47.530;8.584;2022-12-18T04:37:50;-1.40;99.90
61255;DHT22;47128;47.530;8.584;2022-12-18T04:40:16;-1.40;99.90
61255;DHT22;47128;47.530;8.584;2022-12-18T04:42:41;-1.40;99.90
61255;DHT22;47128;47.530;8.584;2022-12-18T04:45:07;-1.40;99.90
61255;DHT22;47128;47.530;8.584;2022-12-18T04:47:33;-1.40;99.90
61255;DHT22;47128;47.530;8.584;2022-12-18T04:49:59;-1.40;99.90
61255;DHT22;47128;47.530;8.584;2022-12-18T04:52:24;-1.40;99.90
61255;DHT22;47128;47.530;8.584;2022-12-18T04:54:50;-1.40;99.90
61255;DHT22;47128;47.530;8.584;2022-12-18T04:57:16;-1.40;99.90
61255;DHT22;47128;47.530;8.584;2022-12-18T04:59:43;-1.40;99.90
61255;DHT22;47128;47.530;8.584;2022-12-18T05:02:09;-1.40;99.90
61255;DHT22;47128;47.530;8.584;2022-12-18T05:04:35;-1.40;99.90
61255;DHT22;47128;47.530;8.584;2022-12-18T05:07:00;-1.30;99.90
61255;DHT22;47128;47.530;8.584;2022-12-18T05:09:26;-1.30;99.90
61255;DHT22;47128;47.530;8.584;2022-12-18T05:11:51;-1.40;99.90
61255;DHT22;47128;47.530;8.584;2022-12-18T05:14:17;-1.40;99.90
61255;DHT22;47128;47.530;8.584;2022-12-18T05:16:42;-1.40;99.90
61255;DHT22;47128;47.530;8.584;2022-12-18T05:19:08;-1.40;99.90
61255;DHT22;47128;47.530;8.584;2022-12-18T05:21:34;-1.40;99.90
61255;DHT22;47128;47.530;8.584;2022-12-18T05:23:59;-1.40;99.90
61255;DHT22;47128;47.530;8.584;2022-12-18T05:26:25;-1.40;99.90
61255;DHT22;47128;47.530;8.584;2022-12-18T05:28:50;-1.40;99.90
61255;DHT22;47128;47.530;8.584;2022-12-18T05:31:16;-1.40;99.90
61255;DHT22;47128;47.530;8.584;2022-12-18T05:33:41;-1.40;99.90
61255;DHT22;47128;47.530;8.584;2022-12-18T05:36:08;-1.30;99.90
61255;DHT22;47128;47.530;8.584;2022-12-18T05:38:36;-1.30;99.90
61255;DHT22;47128;47.530;8.584;2022-12-18T05:41:02;-1.30;99.90
61255;DHT22;47128;47.530;8.584;2022-12-18T05:43:28;-1.30;99.90
61255;DHT22;47128;47.530;8.584;2022-12-18T05:45:54;-1.30;99.90
61255;DHT22;47128;47.530;8.584;2022-12-18T05:48:20;-1.40;99.90
61255;DHT22;47128;47.530;8.584;2022-12-18T05:50:47;-1.40;99.90
61255;DHT22;47128;47.530;8.584;2022-12-18T05:53:15;-1.30;99.90
61255;DHT22;47128;47.530;8.584;2022-12-18T05:55:41;-1.30;99.90
61255;DHT22;47128;47.530;8.584;2022-12-18T05:58:08;-1.30;99.90
61255;DHT22;47128;47.530;8.584;2022-12-18T06:00:38;-1.30;99.90
61255;DHT22;47128;47.530;8.584;2022-12-18T06:03:06;-1.30;99.90
61255;DHT22;47128;47.530;8.584;2022-12-18T06:05:40;-1.30;99.90
61255;DHT22;47128;47.530;8.584;2022-12-18T06:08:06;-1.30;99.90
61255;DHT22;47128;47.530;8.584;2022-12-18T06:10:32;-1.30;99.90
61255;DHT22;47128;47.530;8.584;2022-12-18T06:12:59;-1.30;99.90
61255;DHT22;47128;47.530;8.584;2022-12-18T06:15:25;-1.30;99.90
61255;DHT22;47128;47.530;8.584;2022-12-18T06:17:50;-1.20;99.90
61255;DHT22;47128;47.530;8.584;2022-12-18T06:20:16;-1.30;99.90
61255;DHT22;47128;47.530;8.584;2022-12-18T06:22:41;-1.20;99.90
61255;DHT22;47128;47.530;8.584;2022-12-18T06:25:07;-1.20;99.90
61255;DHT22;47128;47.530;8.584;2022-12-18T06:27:33;-1.30;99.90
61255;DHT22;47128;47.530;8.584;2022-12-18T06:29:59;-1.20;99.90
61255;DHT22;47128;47.530;8.584;2022-12-18T06:32:25;-1.20;99.90
61255;DHT22;47128;47.530;8.584;2022-12-18T06:34:50;-1.30;99.90
61255;DHT22;47128;47.530;8.584;2022-12-18T06:37:16;-1.30;99.90
61255;DHT22;47128;47.530;8.584;2022-12-18T06:39:42;-1.20;99.90
61255;DHT22;47128;47.530;8.584;2022-12-18T06:42:07;-1.20;99.90
61255;DHT22;47128;47.530;8.584;2022-12-18T06:44:33;-1.20;99.90
61255;DHT22;47128;47.530;8.584;2022-12-18T06:46:58;-1.20;99.90
61255;DHT22;47128;47.530;8.584;2022-12-18T06:49:24;-1.20;99.90
61255;DHT22;47128;47.530;8.584;2022-12-18T06:51:50;-1.20;99.90
61255;DHT22;47128;47.530;8.584;2022-12-18T06:54:15;-1.20;99.90
61255;DHT22;47128;47.530;8.584;2022-12-18T06:56:41;-1.20;99.90
61255;DHT22;47128;47.530;8.584;2022-12-18T06:59:06;-1.20;99.90
61255;DHT22;47128;47.530;8.584;2022-12-18T07:01:32;-1.20;99.90
61255;DHT22;47128;47.530;8.584;2022-12-18T07:03:58;-1.20;99.90
61255;DHT22;47128;47.530;8.584;2022-12-18T07:06:25;-1.20;99.90
61255;DHT22;47128;47.530;8.584;2022-12-18T07:08:51;-1.20;99.90
61255;DHT22;47128;47.530;8.584;2022-12-18T07:11:18;-1.20;99.90
61255;DHT22;47128;47.530;8.584;2022-12-18T07:13:44;-1.20;99.90
61255;DHT22;47128;47.530;8.584;2022-12-18T07:16:15;-1.20;99.90
61255;DHT22;47128;47.530;8.584;2022-12-18T07:18:41;-1.30;99.90
61255;DHT22;47128;47.530;8.584;2022-12-18T07:21:09;-1.20;99.90
61255;DHT22;47128;47.530;8.584;2022-12-18T07:23:35;-1.20;99.90
61255;DHT22;47128;47.530;8.584;2022-12-18T07:26:11;-1.30;99.90
61255;DHT22;47128;47.530;8.584;2022-12-18T07:28:39;-1.30;99.90
61255;DHT22;47128;47.530;8.584;2022-12-18T07:31:11;-1.20;99.90
61255;DHT22;47128;47.530;8.584;2022-12-18T07:33:37;-1.20;99.90
61255;DHT22;47128;47.530;8.584;2022-12-18T07:36:06;-1.20;99.90
61255;DHT22;47128;47.530;8.584;2022-12-18T07:38:33;-1.20;99.90
61255;DHT22;47128;47.530;8.584;2022-12-18T07:41:04;-1.20;99.90
61255;DHT22;47128;47.530;8.584;2022-12-18T07:43:30;-1.20;99.90
61255;DHT22;47128;47.530;8.584;2022-12-18T07:45:55;-1.20;99.90
61255;DHT22;47128;47.530;8.584;2022-12-18T07:48:21;-1.10;99.90
61255;DHT22;47128;47.530;8.584;2022-12-18T07:50:46;-1.10;99.90
61255;DHT22;47128;47.530;8.584;2022-12-18T07:53:12;-1.10;99.90
61255;DHT22;47128;47.530;8.584;2022-12-18T07:55:38;-1.10;99.90
61255;DHT22;47128;47.530;8.584;2022-12-18T07:58:04;-1.10;99.90
61255;DHT22;47128;47.530;8.584;2022-12-18T08:00:30;-1.10;99.90
61255;DHT22;47128;47.530;8.584;2022-12-18T08:02:57;-1.00;99.90
61255;DHT22;47128;47.530;8.584;2022-12-18T08:05:23;-1.00;99.90
61255;DHT22;47128;47.530;8.584;2022-12-18T08:07:49;-0.90;99.90
61255;DHT22;47128;47.530;8.584;2022-12-18T08:10:15;-0.90;99.90
61255;DHT22;47128;47.530;8.584;2022-12-18T08:12:40;-0.90;99.90
61255;DHT22;47128;47.530;8.584;2022-12-18T08:15:07;-0.80;99.90
61255;DHT22;47128;47.530;8.584;2022-12-18T08:17:33;-0.80;99.90
61255;DHT22;47128;47.530;8.584;2022-12-18T08:19:59;-0.80;99.90
61255;DHT22;47128;47.530;8.584;2022-12-18T08:22:24;-0.80;99.90
61255;DHT22;47128;47.530;8.584;2022-12-18T08:24:50;-0.90;99.90
61255;DHT22;47128;47.530;8.584;2022-12-18T08:27:16;-0.80;99.90
61255;DHT22;47128;47.530;8.584;2022-12-18T08:29:41;-0.90;99.90
61255;DHT22;47128;47.530;8.584;2022-12-18T08:32:07;-0.90;99.90
61255;DHT22;47128;47.530;8.584;2022-12-18T08:34:33;-0.80;99.90
61255;DHT22;47128;47.530;8.584;2022-12-18T08:36:58;-0.80;99.90
61255;DHT22;47128;47.530;8.584;2022-12-18T08:39:24;-0.80;99.90
61255;DHT22;47128;47.530;8.584;2022-12-18T08:41:49;-0.80;99.90
61255;DHT22;47128;47.530;8.584;2022-12-18T08:44:34;-0.70;99.90
61255;DHT22;47128;47.530;8.584;2022-12-18T08:47:02;-0.70;99.90
61255;DHT22;47128;47.530;8.584;2022-12-18T08:49:29;-0.60;99.90
61255;DHT22;47128;47.530;8.584;2022-12-18T08:51:56;-0.60;99.90
61255;DHT22;47128;47.530;8.584;2022-12-18T08:54:23;-0.60;99.90
61255;DHT22;47128;47.530;8.584;2022-12-18T08:56:49;-0.60;99.90
61255;DHT22;47128;47.530;8.584;2022-12-18T08:59:18;-0.60;99.90
61255;DHT22;47128;47.530;8.584;2022-12-18T09:01:43;-0.50;99.90
61255;DHT22;47128;47.530;8.584;2022-12-18T09:04:09;-0.50;99.90
61255;DHT22;47128;47.530;8.584;2022-12-18T09:06:36;-0.40;99.90
61255;DHT22;47128;47.530;8.584;2022-12-18T09:09:03;-0.40;99.90
61255;DHT22;47128;47.530;8.584;2022-12-18T09:11:29;-0.40;99.90
61255;DHT22;47128;47.530;8.584;2022-12-18T09:13:55;-0.40;99.90
61255;DHT22;47128;47.530;8.584;2022-12-18T09:16:22;-0.40;99.90
61255;DHT22;47128;47.530;8.584;2022-12-18T09:18:48;-0.30;99.90
61255;DHT22;47128;47.530;8.584;2022-12-18T09:21:19;-0.30;99.90
61255;DHT22;47128;47.530;8.584;2022-12-18T09:23:49;-0.20;99.90
61255;DHT22;47128;47.530;8.584;2022-12-18T09:26:15;-0.20;99.90
61255;DHT22;47128;47.530;8.584;2022-12-18T09:28:41;-0.20;99.90
61255;DHT22;47128;47.530;8.584;2022-12-18T09:31:08;-0.20;99.90
61255;DHT22;47128;47.530;8.584;2022-12-18T09:33:37;-0.10;99.90
61255;DHT22;47128;47.530;8.584;2022-12-18T09:36:05;-0.10;99.90
61255;DHT22;47128;47.530;8.584;2022-12-18T09:38:32;0.00;99.90
61255;DHT22;47128;47.530;8.584;2022-12-18T09:41:03;0.00;99.90
61255;DHT22;47128;47.530;8.584;2022-12-18T09:43:36;0.00;99.90
61255;DHT22;47128;47.530;8.584;2022-12-18T09:46:09;0.00;99.90
61255;DHT22;47128;47.530;8.584;2022-12-18T09:48:40;-0.10;99.90
61255;DHT22;47128;47.530;8.584;2022-12-18T09:51:18;0.00;99.90
61255;DHT22;47128;47.530;8.584;2022-12-18T09:53:49;0.00;99.90
61255;DHT22;47128;47.530;8.584;2022-12-18T09:56:20;0.10;99.90
61255;DHT22;47128;47.530;8.584;2022-12-18T09:58:59;0.10;99.90
61255;DHT22;47128;47.530;8.584;2022-12-18T10:01:26;0.10;99.90
61255;DHT22;47128;47.530;8.584;2022-12-18T10:03:53;0.10;99.90
61255;DHT22;47128;47.530;8.584;2022-12-18T10:06:24;0.20;99.90
61255;DHT22;47128;47.530;8.584;2022-12-18T10:11:48;0.40;99.90
61255;DHT22;47128;47.530;8.584;2022-12-18T10:19:54;0.60;99.90
61255;DHT22;47128;47.530;8.584;2022-12-18T10:22:36;0.60;99.90
61255;DHT22;47128;47.530;8.584;2022-12-18T10:27:41;0.60;99.90
61255;DHT22;47128;47.530;8.584;2022-12-18T10:30:15;0.70;99.90
61255;DHT22;47128;47.530;8.584;2022-12-18T10:32:52;0.60;99.90
61255;DHT22;47128;47.530;8.584;2022-12-18T10:35:21;0.60;99.90
61255;DHT22;47128;47.530;8.584;2022-12-18T10:40:34;0.60;99.90
61255;DHT22;47128;47.530;8.584;2022-12-18T10:43:14;0.60;99.90
61255;DHT22;47128;47.530;8.584;2022-12-18T10:45:41;0.60;99.90
61255;DHT22;47128;47.530;8.584;2022-12-18T10:48:24;0.70;99.90
61255;DHT22;47128;47.530;8.584;2022-12-18T10:50:50;0.70;99.90
61255;DHT22;47128;47.530;8.584;2022-12-18T10:53:23;0.70;99.90
61255;DHT22;47128;47.530;8.584;2022-12-18T10:55:52;0.70;99.90
61255;DHT22;47128;47.530;8.584;2022-12-18T10:58:27;0.70;99.90
61255;DHT22;47128;47.530;8.584;2022-12-18T11:01:17;0.70;99.90
61255;DHT22;47128;47.530;8.584;2022-12-18T11:04:08;0.60;99.90
61255;DHT22;47128;47.530;8.584;2022-12-18T11:06:34;0.60;99.90
61255;DHT22;47128;47.530;8.584;2022-12-18T11:09:05;0.60;99.90
61255;DHT22;47128;47.530;8.584;2022-12-18T11:11:32;0.60;99.90
61255;DHT22;47128;47.530;8.584;2022-12-18T11:16:28;0.60;99.90
61255;DHT22;47128;47.530;8.584;2022-12-18T11:21:50;0.60;99.90
61255;DHT22;47128;47.530;8.584;2022-12-18T11:24:34;0.70;99.90
61255;DHT22;47128;47.530;8.584;2022-12-18T11:27:02;0.80;99.90
61255;DHT22;47128;47.530;8.584;2022-12-18T11:29:37;0.80;99.90
61255;DHT22;47128;47.530;8.584;2022-12-18T11:34:45;0.80;99.90
61255;DHT22;47128;47.530;8.584;2022-12-18T11:37:13;0.80;99.90
61255;DHT22;47128;47.530;8.584;2022-12-18T11:39:49;0.80;99.90
61255;DHT22;47128;47.530;8.584;2022-12-18T11:42:18;0.80;99.90
61255;DHT22;47128;47.530;8.584;2022-12-18T11:44:52;0.70;99.90
61255;DHT22;47128;47.530;8.584;2022-12-18T11:47:43;0.60;99.90
61255;DHT22;47128;47.530;8.584;2022-12-18T11:50:17;0.60;99.90
61255;DHT22;47128;47.530;8.584;2022-12-18T11:52:44;0.60;99.90
61255;DHT22;47128;47.530;8.584;2022-12-18T12:00:22;0.80;99.90
61255;DHT22;47128;47.530;8.584;2022-12-18T12:13:45;0.90;99.90
61255;DHT22;47128;47.530;8.584;2022-12-18T12:16:25;0.90;99.90
61255;DHT22;47128;47.530;8.584;2022-12-18T12:19:12;1.00;99.90
61255;DHT22;47128;47.530;8.584;2022-12-18T12:21:44;1.00;99.90
61255;DHT22;47128;47.530;8.584;2022-12-18T12:29:49;1.10;99.90
61255;DHT22;47128;47.530;8.584;2022-12-18T12:32:28;1.00;99.90
61255;DHT22;47128;47.530;8.584;2022-12-18T12:38:08;0.90;99.90
61255;DHT22;47128;47.530;8.584;2022-12-18T12:40:44;1.00;99.90
61255;DHT22;47128;47.530;8.584;2022-12-18T12:45:54;1.00;99.90
61255;DHT22;47128;47.530;8.584;2022-12-18T12:51:25;1.00;99.90
61255;DHT22;47128;47.530;8.584;2022-12-18T12:53:52;0.90;99.90
61255;DHT22;47128;47.530;8.584;2022-12-18T12:56:19;0.90;99.90
61255;DHT22;47128;47.530;8.584;2022-12-18T12:59:04;0.90;99.90
61255;DHT22;47128;47.530;8.584;2022-12-18T13:09:21;1.10;99.90
61255;DHT22;47128;47.530;8.584;2022-12-18T13:11:47;1.10;99.90
61255;DHT22;47128;47.530;8.584;2022-12-18T13:14:37;1.00;99.90
61255;DHT22;47128;47.530;8.584;2022-12-18T13:17:23;0.90;99.90
61255;DHT22;47128;47.530;8.584;2022-12-18T13:20:07;1.00;99.90
61255;DHT22;47128;47.530;8.584;2022-12-18T13:22:45;0.90;99.90
61255;DHT22;47128;47.530;8.584;2022-12-18T13:25:34;1.00;99.90
61255;DHT22;47128;47.530;8.584;2022-12-18T13:28:04;1.00;99.90
61255;DHT22;47128;47.530;8.584;2022-12-18T13:38:23;1.00;99.90
61255;DHT22;47128;47.530;8.584;2022-12-18T13:49:00;0.80;99.90
61255;DHT22;47128;47.530;8.584;2022-12-18T13:51:31;0.80;99.90
61255;DHT22;47128;47.530;8.584;2022-12-18T13:54:00;0.80;99.90
61255;DHT22;47128;47.530;8.584;2022-12-18T13:56:29;0.90;99.90
61255;DHT22;47128;47.530;8.584;2022-12-18T13:59:21;1.00;99.90
61255;DHT22;47128;47.530;8.584;2022-12-18T14:01:48;1.00;99.90
61255;DHT22;47128;47.530;8.584;2022-12-18T14:04:22;0.90;99.90
61255;DHT22;47128;47.530;8.584;2022-12-18T14:06:52;0.90;99.90
61255;DHT22;47128;47.530;8.584;2022-12-18T14:09:25;0.90;99.90
61255;DHT22;47128;47.530;8.584;2022-12-18T14:11:51;1.00;99.90
61255;DHT22;47128;47.530;8.584;2022-12-18T14:14:18;1.00;99.90
61255;DHT22;47128;47.530;8.584;2022-12-18T14:16:46;1.00;99.90
61255;DHT22;47128;47.530;8.584;2022-12-18T14:19:17;0.90;99.90
61255;DHT22;47128;47.530;8.584;2022-12-18T14:21:48;0.90;99.90
61255;DHT22;47128;47.530;8.584;2022-12-18T14:24:20;0.80;99.90
61255;DHT22;47128;47.530;8.584;2022-12-18T14:26:47;0.80;99.90
61255;DHT22;47128;47.530;8.584;2022-12-18T14:29:28;0.80;99.90
61255;DHT22;47128;47.530;8.584;2022-12-18T14:32:11;0.80;99.90
61255;DHT22;47128;47.530;8.584;2022-12-18T14:34:39;0.70;99.90
61255;DHT22;47128;47.530;8.584;2022-12-18T14:37:07;0.70;99.90
61255;DHT22;47128;47.530;8.584;2022-12-18T14:39:34;0.70;99.90
61255;DHT22;47128;47.530;8.584;2022-12-18T14:42:00;0.70;99.90
61255;DHT22;47128;47.530;8.584;2022-12-18T14:44:25;0.70;99.90
61255;DHT22;47128;47.530;8.584;2022-12-18T14:46:51;0.60;99.90
61255;DHT22;47128;47.530;8.584;2022-12-18T14:49:24;0.60;99.90
61255;DHT22;47128;47.530;8.584;2022-12-18T14:51:54;0.60;99.90
61255;DHT22;47128;47.530;8.584;2022-12-18T14:54:21;0.60;99.90
61255;DHT22;47128;47.530;8.584;2022-12-18T14:59:22;0.60;99.90
61255;DHT22;47128;47.530;8.584;2022-12-18T15:02:04;0.60;99.90
61255;DHT22;47128;47.530;8.584;2022-12-18T15:04:37;0.50;99.90
61255;DHT22;47128;47.530;8.584;2022-12-18T15:07:22;0.40;99.90
61255;DHT22;47128;47.530;8.584;2022-12-18T15:10:11;0.40;99.90
61255;DHT22;47128;47.530;8.584;2022-12-18T15:12:39;0.40;99.90
61255;DHT22;47128;47.530;8.584;2022-12-18T15:15:05;0.40;99.90
61255;DHT22;47128;47.530;8.584;2022-12-18T15:17:57;0.30;99.90
61255;DHT22;47128;47.530;8.584;2022-12-18T15:20:23;0.30;99.90
61255;DHT22;47128;47.530;8.584;2022-12-18T15:22:48;0.30;99.90
61255;DHT22;47128;47.530;8.584;2022-12-18T15:25:31;0.40;99.90
61255;DHT22;47128;47.530;8.584;2022-12-18T15:27:58;0.30;99.90
61255;DHT22;47128;47.530;8.584;2022-12-18T15:30:25;0.30;99.90
61255;DHT22;47128;47.530;8.584;2022-12-18T15:32:51;0.30;99.90
61255;DHT22;47128;47.530;8.584;2022-12-18T15:35:21;0.30;99.90
61255;DHT22;47128;47.530;8.584;2022-12-18T15:37:47;0.20;99.90
61255;DHT22;47128;47.530;8.584;2022-12-18T15:40:15;0.20;99.90
61255;DHT22;47128;47.530;8.584;2022-12-18T15:42:42;0.20;99.90
61255;DHT22;47128;47.530;8.584;2022-12-18T15:45:26;0.20;99.90
61255;DHT22;47128;47.530;8.584;2022-12-18T15:47:52;0.20;99.90
61255;DHT22;47128;47.530;8.584;2022-12-18T15:50:17;0.20;99.90
61255;DHT22;47128;47.530;8.584;2022-12-18T15:52:45;0.20;99.90
61255;DHT22;47128;47.530;8.584;2022-12-18T15:55:13;0.20;99.90
61255;DHT22;47128;47.530;8.584;2022-12-18T15:57:58;0.20;99.90
61255;DHT22;47128;47.530;8.584;2022-12-18T16:00:24;0.20;99.90
61255;DHT22;47128;47.530;8.584;2022-12-18T16:02:49;0.10;99.90
61255;DHT22;47128;47.530;8.584;2022-12-18T16:05:16;0.10;99.90
61255;DHT22;47128;47.530;8.584;2022-12-18T16:07:43;0.00;99.90
61255;DHT22;47128;47.530;8.584;2022-12-18T16:10:09;0.10;99.90
61255;DHT22;47128;47.530;8.584;2022-12-18T16:12:35;0.00;99.90
61255;DHT22;47128;47.530;8.584;2022-12-18T16:15:01;0.00;99.90
61255;DHT22;47128;47.530;8.584;2022-12-18T16:17:26;0.00;99.90
61255;DHT22;47128;47.530;8.584;2022-12-18T16:19:52;0.10;99.90
61255;DHT22;47128;47.530;8.584;2022-12-18T16:22:20;0.10;99.90
61255;DHT22;47128;47.530;8.584;2022-12-18T16:24:46;0.10;99.90
61255;DHT22;47128;47.530;8.584;2022-12-18T16:27:12;0.10;99.90
61255;DHT22;47128;47.530;8.584;2022-12-18T16:29:37;0.00;99.90
61255;DHT22;47128;47.530;8.584;2022-12-18T16:32:03;0.10;99.90
61255;DHT22;47128;47.530;8.584;2022-12-18T16:34:30;0.00;99.90
61255;DHT22;47128;47.530;8.584;2022-12-18T16:37:01;0.00;99.90
61255;DHT22;47128;47.530;8.584;2022-12-18T16:39:28;0.00;99.90
61255;DHT22;47128;47.530;8.584;2022-12-18T16:41:53;0.00;99.90
61255;DHT22;47128;47.530;8.584;2022-12-18T16:44:21;0.10;99.90
61255;DHT22;47128;47.530;8.584;2022-12-18T16:46:47;0.00;99.90
61255;DHT22;47128;47.530;8.584;2022-12-18T16:49:16;-0.10;99.90
61255;DHT22;47128;47.530;8.584;2022-12-18T16:51:43;-0.10;99.90
61255;DHT22;47128;47.530;8.584;2022-12-18T16:54:09;-0.20;99.90
61255;DHT22;47128;47.530;8.584;2022-12-18T16:56:35;-0.10;99.90
61255;DHT22;47128;47.530;8.584;2022-12-18T16:59:02;-0.20;99.90
61255;DHT22;47128;47.530;8.584;2022-12-18T17:01:29;-0.20;99.90
61255;DHT22;47128;47.530;8.584;2022-12-18T17:04:00;-0.20;99.90
61255;DHT22;47128;47.530;8.584;2022-12-18T17:06:27;-0.20;99.90
61255;DHT22;47128;47.530;8.584;2022-12-18T17:09:04;-0.30;99.90
61255;DHT22;47128;47.530;8.584;2022-12-18T17:11:31;-0.30;99.90
61255;DHT22;47128;47.530;8.584;2022-12-18T17:13:58;-0.30;99.90
61255;DHT22;47128;47.530;8.584;2022-12-18T17:16:24;-0.40;99.90
61255;DHT22;47128;47.530;8.584;2022-12-18T17:18:52;-0.30;99.90
61255;DHT22;47128;47.530;8.584;2022-12-18T17:21:18;-0.40;99.90